createdAt,value
2023-01-11T00:00:15.655Z,23.20
2023-01-11T00:02:45.832Z,21.53
2023-01-11T00:05:15.818Z,21.53
2023-01-11T00:07:46.598Z,22.40
2023-01-11T00:10:15.016Z,22.10
2023-01-11T00:12:44.629Z,24.27
2023-01-11T00:15:16.702Z,23.47
2023-01-11T00:17:45.172Z,24.17
2023-01-11T00:20:13.588Z,22.17
2023-01-11T00:22:41.995Z,22.90
2023-01-11T00:25:11.046Z,24.13
2023-01-11T00:27:39.407Z,23.17
2023-01-11T00:30:08.925Z,25.53
2023-01-11T00:32:38.596Z,22.87
2023-01-11T00:35:09.208Z,24.33
2023-01-11T00:37:37.852Z,24.20
2023-01-11T00:40:07.182Z,23.47
2023-01-11T00:42:52.728Z,22.83
2023-01-11T00:45:38.798Z,23.37
2023-01-11T00:48:10.846Z,23.63
2023-01-11T00:50:41.301Z,23.70
2023-01-11T00:53:12.227Z,24.27
2023-01-11T00:55:40.724Z,22.93
2023-01-11T00:58:09.161Z,22.67
2023-01-11T01:00:37.942Z,22.47
2023-01-11T01:03:06.324Z,24.60
2023-01-11T01:05:39.387Z,22.60
2023-01-11T01:08:08.095Z,21.73
2023-01-11T01:10:36.570Z,23.23
2023-01-11T01:13:22.099Z,21.90
2023-01-11T01:15:50.459Z,19.63
2023-01-11T01:18:20.723Z,18.13
2023-01-11T01:20:53.071Z,20.57
2023-01-11T01:23:21.389Z,16.70
2023-01-11T01:25:49.802Z,18.63
2023-01-11T01:28:18.963Z,19.30
2023-01-11T01:30:51.633Z,19.87
2023-01-11T01:33:20.123Z,18.97
2023-01-11T01:35:50.480Z,17.43
2023-01-11T01:38:20.329Z,22.23
2023-01-11T01:40:50.073Z,18.67
2023-01-11T01:43:19.574Z,19.03
2023-01-11T01:45:50.124Z,20.57
2023-01-11T01:48:23.228Z,19.47
2023-01-11T01:50:55.344Z,18.33
2023-01-11T01:53:31.893Z,24.23
2023-01-11T01:56:02.940Z,18.53
2023-01-11T01:58:34.990Z,18.67
2023-01-11T02:01:26.111Z,18.40
2023-01-11T02:03:56.152Z,20.57
2023-01-11T02:06:25.287Z,16.87
2023-01-11T02:09:03.394Z,17.30
2023-01-11T02:11:32.096Z,17.93
2023-01-11T02:14:02.285Z,17.57
2023-01-11T02:16:31.106Z,15.30
2023-01-11T02:19:00.905Z,17.20
2023-01-11T02:21:41.855Z,15.97
2023-01-11T02:24:48.179Z,16.27
2023-01-11T02:27:30.081Z,16.43
2023-01-11T02:30:14.424Z,17.47
2023-01-11T02:32:52.727Z,17.33
2023-01-11T02:35:33.351Z,16.40
2023-01-11T02:38:07.935Z,20.20
2023-01-11T02:40:45.419Z,16.83
2023-01-11T02:43:37.019Z,14.97
2023-01-11T02:46:13.282Z,17.87
2023-01-11T02:48:50.896Z,16.03
2023-01-11T02:51:24.721Z,19.30
2023-01-11T02:53:56.711Z,18.90
2023-01-11T02:56:28.857Z,16.73
2023-01-11T02:59:01.061Z,16.20
2023-01-11T03:01:31.192Z,21.30
2023-01-11T03:04:02.054Z,19.63
2023-01-11T03:06:36.521Z,15.37
2023-01-11T03:09:20.962Z,20.43
2023-01-11T03:12:17.212Z,21.43
2023-01-11T03:14:58.241Z,17.37
2023-01-11T03:17:43.742Z,17.20
2023-01-11T03:20:21.950Z,17.63
2023-01-11T03:23:05.195Z,16.70
2023-01-11T03:25:44.492Z,16.97
2023-01-11T03:28:20.331Z,18.60
2023-01-11T03:30:55.336Z,17.87
2023-01-11T03:33:34.065Z,17.53
2023-01-11T03:36:10.198Z,18.57
2023-01-11T03:38:42.410Z,17.53
2023-01-11T03:41:16.869Z,18.20
2023-01-11T03:43:49.600Z,17.50
2023-01-11T03:46:23.941Z,17.93
2023-01-11T03:48:57.970Z,19.33
2023-01-11T03:51:28.549Z,16.87
2023-01-11T03:54:01.034Z,15.57
2023-01-11T03:56:37.969Z,17.27
2023-01-11T03:59:06.796Z,18.33
2023-01-11T04:01:35.134Z,17.80
2023-01-11T04:04:05.074Z,17.30
2023-01-11T04:06:37.215Z,24.87
2023-01-11T04:09:08.791Z,15.23
2023-01-11T04:11:39.317Z,16.67
2023-01-11T04:14:07.856Z,18.93
2023-01-11T04:16:36.260Z,17.03
2023-01-11T04:19:06.123Z,17.80
2023-01-11T04:21:34.649Z,18.50
2023-01-11T04:24:03.091Z,16.80
2023-01-11T04:26:31.545Z,16.90
2023-01-11T04:28:59.992Z,16.70
2023-01-11T04:31:28.476Z,16.07
2023-01-11T04:33:56.899Z,16.40
2023-01-11T04:36:28.896Z,18.30
2023-01-11T04:38:57.328Z,17.23
2023-01-11T04:41:43.341Z,17.30
2023-01-11T04:44:11.668Z,18.63
2023-01-11T04:46:40.117Z,17.90
2023-01-11T04:49:08.577Z,18.60
2023-01-11T04:51:39.684Z,17.80
2023-01-11T04:54:07.987Z,18.13
2023-01-11T04:56:36.562Z,19.17
2023-01-11T04:59:05.077Z,19.20
2023-01-11T05:01:33.544Z,20.80
2023-01-11T05:04:01.996Z,20.30
2023-01-11T05:06:30.392Z,21.17
2023-01-11T05:09:00.279Z,18.57
2023-01-11T05:11:28.722Z,20.77
2023-01-11T05:14:00.066Z,20.73
2023-01-11T05:16:30.826Z,20.23
2023-01-11T05:19:00.640Z,19.23
2023-01-11T05:21:32.591Z,20.80
2023-01-11T05:24:04.684Z,20.73
2023-01-11T05:26:35.293Z,21.93
2023-01-11T05:29:08.296Z,20.30
2023-01-11T05:31:38.351Z,19.63
2023-01-11T05:34:08.112Z,21.67
2023-01-11T05:36:37.245Z,23.43
2023-01-11T05:39:09.486Z,18.33
2023-01-11T05:41:39.927Z,19.37
2023-01-11T05:44:29.698Z,18.83
2023-01-11T05:46:58.163Z,19.13
2023-01-11T05:49:29.085Z,19.87
2023-01-11T05:51:59.609Z,21.47
2023-01-11T05:54:29.616Z,16.40
2023-01-11T05:56:58.751Z,16.53
2023-01-11T05:59:31.934Z,18.10
2023-01-11T06:02:00.720Z,15.33
2023-01-11T06:04:29.569Z,16.53
2023-01-11T06:07:06.981Z,15.23
2023-01-11T06:09:36.934Z,14.93
2023-01-11T06:12:10.448Z,14.70
2023-01-11T06:14:40.562Z,15.50
2023-01-11T06:17:10.144Z,14.43
2023-01-11T06:19:38.596Z,14.00
2023-01-11T06:22:06.985Z,14.37
2023-01-11T06:24:36.911Z,14.97
2023-01-11T06:27:07.443Z,13.30
2023-01-11T06:29:35.905Z,14.53
2023-01-11T06:32:04.346Z,16.53
2023-01-11T06:34:32.767Z,13.93
2023-01-11T06:37:01.377Z,13.23
2023-01-11T06:39:29.782Z,13.60
2023-01-11T06:42:02.452Z,15.30
2023-01-11T06:44:30.964Z,15.67
2023-01-11T06:46:59.484Z,15.33
2023-01-11T06:49:27.854Z,14.70
2023-01-11T06:51:56.488Z,15.63
2023-01-11T06:54:25.911Z,13.07
2023-01-11T06:56:54.314Z,14.30
2023-01-11T06:59:24.348Z,13.67
2023-01-11T07:01:52.831Z,14.23
2023-01-11T07:04:21.744Z,15.13
2023-01-11T07:06:50.265Z,13.83
2023-01-11T07:09:18.851Z,12.57
2023-01-11T07:11:47.359Z,12.53
2023-01-11T07:14:22.194Z,13.53
2023-01-11T07:16:52.101Z,11.10
2023-01-11T07:19:21.676Z,11.40
2023-01-11T07:21:50.219Z,13.20
2023-01-11T07:24:23.128Z,13.37
2023-01-11T07:26:54.652Z,11.27
2023-01-11T07:29:25.306Z,12.50
2023-01-11T07:31:56.864Z,12.87
2023-01-11T07:34:30.427Z,10.43
2023-01-11T07:37:00.209Z,12.30
2023-01-11T07:39:42.255Z,11.50
2023-01-11T07:42:30.205Z,11.80
2023-01-11T07:44:58.821Z,11.33
2023-01-11T07:47:28.949Z,12.17
2023-01-11T07:49:57.468Z,13.33
2023-01-11T07:52:26.042Z,12.77
2023-01-11T07:54:57.116Z,13.67
2023-01-11T07:57:25.683Z,13.13
2023-01-11T07:59:55.453Z,12.87
2023-01-11T08:02:24.230Z,12.53
2023-01-11T08:04:56.856Z,11.63
2023-01-11T08:07:27.245Z,11.40
2023-01-11T08:09:59.988Z,10.20
2023-01-11T08:12:47.131Z,10.23
2023-01-11T08:15:17.845Z,10.47
2023-01-11T08:17:50.544Z,10.37
2023-01-11T08:20:22.151Z,9.63
2023-01-11T08:22:50.816Z,11.57
2023-01-11T08:25:19.454Z,9.13
2023-01-11T08:27:47.857Z,10.63
2023-01-11T08:30:19.346Z,10.70
2023-01-11T08:32:47.925Z,11.60
2023-01-11T08:35:16.727Z,11.50
2023-01-11T08:37:53.569Z,10.60
2023-01-11T08:40:24.340Z,12.00
2023-01-11T08:42:56.474Z,13.53
2023-01-11T08:45:31.778Z,11.73
2023-01-11T08:48:15.853Z,12.07
2023-01-11T08:50:56.546Z,10.87
2023-01-11T08:53:33.412Z,9.70
2023-01-11T08:56:03.042Z,10.20
2023-01-11T08:58:38.792Z,12.70
2023-01-11T09:01:16.984Z,9.70
2023-01-11T09:03:48.408Z,9.30
2023-01-11T09:06:20.224Z,10.53
2023-01-11T09:09:00.506Z,10.33
2023-01-11T09:11:49.269Z,11.97
2023-01-11T09:14:20.441Z,13.27
2023-01-11T09:16:51.097Z,10.63
2023-01-11T09:19:24.288Z,10.47
2023-01-11T09:21:53.391Z,9.93
2023-01-11T09:24:23.250Z,9.33
2023-01-11T09:26:51.650Z,9.23
2023-01-11T09:29:23.834Z,9.77
2023-01-11T09:31:56.533Z,9.43
2023-01-11T09:34:27.322Z,10.43
2023-01-11T09:36:59.743Z,10.10
2023-01-11T09:39:34.542Z,9.80
2023-01-11T09:42:35.558Z,9.43
2023-01-11T09:45:16.134Z,9.33
2023-01-11T09:47:51.729Z,9.73
2023-01-11T09:50:25.596Z,9.30
2023-01-11T09:52:58.040Z,8.50
2023-01-11T09:55:36.143Z,9.20
2023-01-11T09:58:32.891Z,9.00
2023-01-11T10:01:10.711Z,8.50
2023-01-11T10:04:06.376Z,9.23
2023-01-11T10:06:52.467Z,8.50
2023-01-11T10:18:26.622Z,9.57
2023-01-11T10:21:30.163Z,9.13
2023-01-11T10:24:03.790Z,10.47
2023-01-11T10:26:40.244Z,10.07
2023-01-11T10:29:38.789Z,10.30
2023-01-11T10:32:34.090Z,10.63
2023-01-11T10:35:40.845Z,9.17
2023-01-11T10:38:40.986Z,9.30
2023-01-11T10:41:22.377Z,10.13
2023-01-11T10:44:05.288Z,9.07
2023-01-11T10:46:39.947Z,9.87
2023-01-11T10:49:36.259Z,9.80
2023-01-11T10:52:18.337Z,10.43
2023-01-11T10:54:53.402Z,10.47
2023-01-11T10:57:29.889Z,9.97
2023-01-11T11:00:13.695Z,11.27
2023-01-11T11:03:27.475Z,11.80
2023-01-11T11:06:12.096Z,10.50
2023-01-11T11:08:54.545Z,13.03
2023-01-11T11:11:40.282Z,10.90
2023-01-11T11:14:15.805Z,10.37
2023-01-11T11:17:01.726Z,9.87
2023-01-11T11:19:33.995Z,10.90
2023-01-11T11:22:04.385Z,11.13
2023-01-11T11:24:38.827Z,11.30
2023-01-11T11:27:18.067Z,11.57
2023-01-11T11:29:52.806Z,11.07
2023-01-11T11:32:27.978Z,11.50
2023-01-11T11:34:56.788Z,10.83
2023-01-11T11:37:33.548Z,10.73
2023-01-11T11:40:03.788Z,11.83
2023-01-11T11:42:38.307Z,10.13
2023-01-11T11:45:18.316Z,10.57
2023-01-11T11:48:03.125Z,11.60
2023-01-11T11:50:44.138Z,12.57
2023-01-11T11:53:25.088Z,12.20
2023-01-11T11:55:54.526Z,11.73
2023-01-11T11:58:26.181Z,11.97
2023-01-11T12:00:56.398Z,11.20
2023-01-11T12:03:32.922Z,11.57
2023-01-11T12:06:07.525Z,10.77
2023-01-11T12:08:43.571Z,11.23
2023-01-11T12:11:21.017Z,9.73
2023-01-11T12:14:02.210Z,10.40
2023-01-11T12:16:39.558Z,10.07
2023-01-11T12:19:26.419Z,10.27
2023-01-11T12:21:55.405Z,11.20
2023-01-11T12:24:30.833Z,11.03
2023-01-11T12:27:10.035Z,10.17
2023-01-11T12:30:08.644Z,10.33
2023-01-11T12:33:08.085Z,10.47
2023-01-11T12:35:43.240Z,9.97
2023-01-11T12:38:39.451Z,10.27
2023-01-11T12:41:47.991Z,9.83
2023-01-11T12:44:36.149Z,9.57
2023-01-11T12:47:26.597Z,9.73
2023-01-11T12:50:06.486Z,9.00
2023-01-11T12:52:48.110Z,10.07
2023-01-11T12:55:33.361Z,9.60
2023-01-11T12:58:14.261Z,10.73
2023-01-11T13:01:22.128Z,10.17
2023-01-11T13:04:30.486Z,11.17
2023-01-11T13:07:10.937Z,11.10
2023-01-11T13:09:52.713Z,12.20
2023-01-11T13:12:28.266Z,10.10
2023-01-11T13:15:07.227Z,10.73
2023-01-11T13:17:56.159Z,10.27
2023-01-11T13:20:58.596Z,10.10
2023-01-11T13:23:34.511Z,10.07
2023-01-11T13:26:16.608Z,10.07
2023-01-11T13:28:55.346Z,9.80
2023-01-11T13:31:25.443Z,10.43
2023-01-11T13:33:59.823Z,10.33
2023-01-11T13:36:41.827Z,10.37
2023-01-11T13:39:22.318Z,10.73
2023-01-11T13:42:01.176Z,11.33
2023-01-11T13:44:42.576Z,11.50
2023-01-11T13:47:24.498Z,10.90
2023-01-11T13:50:02.950Z,12.07
2023-01-11T13:52:51.737Z,11.63
2023-01-11T13:55:33.494Z,9.97
2023-01-11T13:58:13.562Z,11.27
2023-01-11T14:01:00.997Z,9.90
2023-01-11T14:03:35.064Z,9.83
2023-01-11T14:06:21.936Z,10.83
2023-01-11T14:09:22.329Z,11.27
2023-01-11T14:12:02.875Z,11.27
2023-01-11T14:14:58.161Z,12.27
2023-01-11T14:17:44.197Z,13.03
2023-01-11T14:20:24.198Z,13.27
2023-01-11T14:23:06.865Z,12.60
2023-01-11T14:25:52.915Z,15.53
2023-01-11T14:28:41.530Z,14.33
2023-01-11T14:31:40.344Z,13.03
2023-01-11T14:35:00.025Z,16.33
2023-01-11T14:38:08.423Z,15.77
2023-01-11T14:40:56.865Z,17.37
2023-01-11T14:43:57.864Z,16.40
2023-01-11T14:47:02.182Z,15.87
2023-01-11T14:49:52.190Z,14.27
2023-01-11T14:52:38.862Z,14.43
2023-01-11T14:55:16.931Z,14.67
2023-01-11T14:58:03.069Z,13.80
2023-01-11T15:01:12.002Z,13.00
2023-01-11T15:03:58.527Z,13.90
2023-01-11T15:06:31.977Z,16.20
2023-01-11T15:09:04.036Z,14.10
2023-01-11T15:11:36.089Z,15.43
2023-01-11T15:14:28.357Z,15.60
2023-01-11T15:17:21.293Z,15.00
2023-01-11T15:19:53.407Z,15.27
2023-01-11T15:22:30.431Z,14.97
2023-01-11T15:25:21.605Z,13.97
2023-01-11T15:27:53.697Z,14.53
2023-01-11T15:30:41.685Z,15.07
2023-01-11T15:33:47.919Z,16.67
2023-01-11T15:36:21.531Z,15.07
2023-01-11T15:39:13.661Z,15.27
2023-01-11T15:42:12.534Z,15.47
2023-01-11T15:45:09.587Z,16.20
2023-01-11T15:48:07.995Z,15.93
2023-01-11T15:51:18.889Z,14.80
2023-01-11T15:54:31.326Z,14.77
2023-01-11T15:57:40.010Z,14.70
2023-01-11T16:00:48.060Z,12.10
2023-01-11T16:03:51.564Z,14.70
2023-01-11T16:06:29.206Z,13.60
2023-01-11T16:09:10.494Z,13.40
2023-01-11T16:11:48.986Z,13.33
2023-01-11T16:14:41.528Z,13.87
2023-01-11T16:17:14.278Z,14.13
2023-01-11T16:19:46.367Z,13.67
2023-01-11T16:22:19.761Z,12.40
2023-01-11T16:24:56.886Z,14.17
2023-01-11T16:27:28.618Z,13.93
2023-01-11T16:29:57.887Z,12.70
2023-01-11T16:32:32.630Z,13.63
2023-01-11T16:35:03.840Z,13.87
2023-01-11T16:37:38.142Z,13.63
2023-01-11T16:40:15.364Z,13.13
2023-01-11T16:42:49.740Z,12.67
2023-01-11T16:45:29.973Z,13.23
2023-01-11T16:48:08.473Z,12.30
2023-01-11T16:50:41.247Z,12.70
2023-01-11T16:53:16.616Z,13.00
2023-01-11T16:56:05.393Z,13.60
2023-01-11T16:58:37.885Z,13.03
2023-01-11T17:01:12.140Z,13.37
2023-01-11T17:03:52.384Z,12.63
2023-01-11T17:06:23.833Z,15.57
2023-01-11T17:08:57.449Z,14.07
2023-01-11T17:11:33.985Z,14.57
2023-01-11T17:14:39.852Z,14.20
2023-01-11T17:17:13.917Z,12.52
2023-01-11T17:19:50.122Z,13.37
2023-01-11T17:22:27.176Z,13.30
2023-01-11T17:24:58.114Z,13.63
2023-01-11T17:27:37.690Z,13.80
2023-01-11T17:30:17.157Z,11.87
2023-01-11T17:32:48.741Z,11.57
2023-01-11T17:35:21.473Z,12.40
2023-01-11T17:37:54.565Z,11.83
2023-01-11T17:40:25.418Z,11.87
2023-01-11T17:43:14.092Z,14.60
2023-01-11T17:45:44.366Z,14.43
2023-01-11T17:48:18.703Z,11.37
2023-01-11T17:50:54.592Z,13.10
2023-01-11T17:53:28.751Z,13.57
2023-01-11T17:56:15.822Z,12.07
2023-01-11T17:58:44.798Z,12.50
2023-01-11T18:01:31.626Z,12.80
2023-01-11T18:04:04.366Z,13.47
2023-01-11T18:06:41.355Z,13.45
2023-01-11T18:09:29.207Z,12.43
2023-01-11T18:12:19.863Z,12.73
2023-01-11T18:14:52.431Z,13.60
2023-01-11T18:17:39.368Z,13.43
2023-01-11T18:20:48.813Z,14.23
2023-01-11T18:23:29.326Z,13.63
2023-01-11T18:26:32.158Z,13.27
2023-01-11T18:29:06.846Z,13.33
2023-01-11T18:31:42.552Z,13.37
2023-01-11T18:34:20.216Z,13.40
2023-01-11T18:37:06.661Z,13.60
2023-01-11T18:39:42.897Z,14.40
2023-01-11T18:42:31.264Z,13.00
2023-01-11T18:45:30.425Z,13.57
2023-01-11T18:48:29.543Z,13.77
2023-01-11T18:51:09.007Z,12.80
2023-01-11T18:53:41.961Z,12.40
2023-01-11T18:56:26.986Z,14.45
2023-01-11T18:59:02.740Z,13.00
2023-01-11T19:02:01.623Z,14.47
2023-01-11T19:04:49.174Z,14.37
2023-01-11T19:11:06.994Z,14.77
2023-01-11T19:13:40.319Z,18.27
2023-01-11T19:16:27.755Z,14.65
2023-01-11T19:19:06.971Z,13.97
2023-01-11T19:21:49.814Z,12.93
2023-01-11T19:24:21.959Z,12.97
2023-01-11T19:26:51.217Z,12.90
2023-01-11T19:29:24.679Z,12.43
2023-01-11T19:31:56.986Z,11.80
2023-01-11T19:34:28.759Z,13.30
2023-01-11T19:36:59.569Z,13.47
2023-01-11T19:39:52.330Z,12.57
2023-01-11T19:42:30.897Z,12.57
2023-01-11T19:45:08.042Z,12.97
2023-01-11T19:47:39.804Z,11.77
2023-01-11T19:50:09.303Z,12.97
2023-01-11T19:52:49.015Z,11.90
2023-01-11T19:55:32.170Z,11.93
2023-01-11T19:58:11.582Z,12.50
2023-01-11T20:01:06.369Z,12.57
2023-01-11T20:03:45.020Z,11.97
2023-01-11T20:06:22.432Z,12.23
2023-01-11T20:08:52.591Z,12.63
2023-01-11T20:11:24.538Z,12.98
2023-01-11T20:14:07.848Z,12.53
2023-01-11T20:17:02.041Z,12.87
2023-01-11T20:19:44.544Z,13.10
2023-01-11T20:22:33.515Z,12.63
2023-01-11T20:25:33.490Z,13.87
2023-01-11T20:28:04.244Z,14.03
2023-01-11T20:30:32.896Z,15.30
2023-01-11T20:33:18.747Z,14.00
2023-01-11T20:35:54.231Z,14.57
2023-01-11T20:38:25.777Z,14.07
2023-01-11T20:40:56.859Z,15.83
2023-01-11T20:43:27.804Z,14.63
2023-01-11T20:46:12.482Z,14.73
2023-01-11T20:48:43.527Z,15.50
2023-01-11T20:51:15.176Z,14.90
2023-01-11T20:53:43.970Z,15.30
2023-01-11T20:56:12.509Z,16.80
2023-01-11T20:58:41.315Z,17.20
2023-01-11T21:01:11.883Z,14.07
2023-01-11T21:03:40.419Z,17.70
2023-01-11T21:06:13.609Z,15.13
2023-01-11T21:08:44.857Z,16.53
2023-01-11T21:11:15.817Z,17.03
2023-01-11T21:13:44.284Z,16.00
2023-01-11T21:16:15.100Z,16.93
2023-01-11T21:18:47.242Z,16.43
2023-01-11T21:21:19.009Z,18.77
2023-01-11T21:23:49.046Z,15.83
2023-01-11T21:26:19.152Z,17.10
2023-01-11T21:28:53.390Z,17.10
2023-01-11T21:31:22.648Z,15.70
2023-01-11T21:33:51.784Z,16.43
2023-01-11T21:36:25.090Z,16.33
2023-01-11T21:38:57.924Z,16.23
2023-01-11T21:41:42.342Z,17.57
2023-01-11T21:44:12.442Z,15.47
2023-01-11T21:46:41.302Z,15.37
2023-01-11T21:49:10.040Z,16.57
2023-01-11T21:51:39.436Z,17.00
2023-01-11T21:54:11.194Z,15.80
2023-01-11T21:56:41.956Z,16.93
2023-01-11T21:59:10.841Z,15.10
2023-01-11T22:01:39.832Z,16.83
2023-01-11T22:04:09.307Z,14.90
2023-01-11T22:06:39.846Z,15.57
2023-01-11T22:09:11.729Z,15.23
2023-01-11T22:11:40.936Z,15.43
2023-01-11T22:14:09.639Z,15.00
2023-01-11T22:16:38.696Z,14.60
2023-01-11T22:19:09.713Z,15.15
2023-01-11T22:21:38.878Z,14.53
2023-01-11T22:24:11.590Z,14.43
2023-01-11T22:26:40.671Z,13.75
2023-01-11T22:29:15.071Z,14.20
2023-01-11T22:31:47.600Z,14.10
2023-01-11T22:34:16.841Z,15.93
2023-01-11T22:36:46.285Z,14.33
2023-01-11T22:39:19.425Z,14.18
2023-01-11T22:41:49.089Z,14.50
2023-01-11T22:44:17.740Z,15.10
2023-01-11T22:46:46.562Z,14.17
2023-01-11T22:49:15.005Z,15.23
2023-01-11T22:51:44.530Z,14.18
2023-01-11T22:54:14.989Z,15.10
2023-01-11T22:56:44.863Z,14.47
2023-01-11T22:59:13.157Z,13.33
2023-01-11T23:01:42.909Z,14.23
2023-01-11T23:04:15.470Z,15.10
2023-01-11T23:06:44.491Z,15.27
2023-01-11T23:09:16.585Z,14.45
2023-01-11T23:12:04.230Z,15.05
2023-01-11T23:14:33.746Z,14.53
2023-01-11T23:17:05.270Z,14.80
2023-01-11T23:19:33.803Z,14.70
2023-01-11T23:22:02.390Z,14.40
2023-01-11T23:24:30.842Z,15.47
2023-01-11T23:27:00.803Z,14.82
2023-01-11T23:29:29.227Z,15.10
2023-01-11T23:31:57.808Z,16.00
2023-01-11T23:34:26.415Z,15.27
2023-01-11T23:36:54.915Z,15.25
2023-01-11T23:39:23.890Z,15.03
2023-01-11T23:42:09.526Z,15.15
2023-01-11T23:44:39.339Z,15.82
2023-01-11T23:47:21.740Z,15.35
2023-01-11T23:49:51.036Z,15.70
2023-01-11T23:52:20.635Z,16.40
2023-01-11T23:54:48.952Z,16.10
2023-01-11T23:57:18.336Z,17.10
2023-01-11T23:59:48.267Z,17.47
